Time;durP1;ratioP1;P1;durP2;ratioP2;P2;SDS_P1;SDS_P2;PMS_P1;PMS_P2;Temp;Humidity;BMP_temperature;BMP_pressure;BME280_temperature;BME280_humidity;BME280_pressure;Samples;Min_cycle;Max_cycle;Signal;HPM_P1;HPM_P2
2022/07/15 00:00:29;;;;;;;3.53;0.87;;;;;;;;;;4984285;28;20598;-66
2022/07/15 00:02:56;;;;;;;2.17;1.17;;;;;;;;;;4981428;28;20234;-65
2022/07/15 00:05:23;;;;;;;2.33;1.00;;;;;;;;;;4983364;28;20235;-66
2022/07/15 00:07:50;;;;;;;4.87;1.17;;;;;;;;;;4982201;28;20577;-66
2022/07/15 00:10:20;;;;;;;3.93;1.10;;;;;;;;;;4982242;28;20239;-65
2022/07/15 00:12:49;;;;;;;1.80;0.97;;;;;;;;;;4982734;28;20224;-66
2022/07/15 00:15:16;;;;;;;2.87;1.03;;;;;;;;;;4980106;28;20231;-65
2022/07/15 00:17:43;;;;;;;4.33;0.87;;;;;;;;;;4987271;28;20234;-65
2022/07/15 00:20:11;;;;;;;2.60;1.10;;;;;;;;;;4983430;28;20266;-66
2022/07/15 00:22:38;;;;;;;6.70;1.20;;;;;;;;;;4983328;28;20587;-65
2022/07/15 00:25:05;;;;;;;3.73;1.20;;;;;;;;;;4964545;28;20232;-66
2022/07/15 00:27:31;;;;;;;4.37;1.40;;;;;;;;;;4972638;28;20224;-65
2022/07/15 00:30:16;;;;;;;4.97;1.10;;;;;;;;;;4981074;28;20212;-66
2022/07/15 00:32:42;;;;;;;3.53;1.23;;;;;;;;;;4978938;28;20224;-65
2022/07/15 00:35:09;;;;;;;3.30;1.17;;;;;;;;;;4979066;28;20243;-65
2022/07/15 00:37:36;;;;;;;4.93;1.27;;;;;;;;;;4981939;28;20246;-65
2022/07/15 00:40:03;;;;;;;6.30;1.33;;;;;;;;;;4981214;28;20228;-65
2022/07/15 00:42:44;;;;;;;5.43;1.20;;;;;;;;;;4982844;28;20251;-65
2022/07/15 00:45:11;;;;;;;3.77;1.10;;;;;;;;;;4982966;28;20236;-65
2022/07/15 00:47:38;;;;;;;3.57;1.30;;;;;;;;;;4981731;28;20238;-66
2022/07/15 00:50:05;;;;;;;3.93;1.20;;;;;;;;;;4964737;28;20243;-65
2022/07/15 00:52:32;;;;;;;4.13;1.30;;;;;;;;;;4981697;28;20224;-66
2022/07/15 00:54:59;;;;;;;2.00;0.90;;;;;;;;;;4964710;28;20269;-65
2022/07/15 00:57:26;;;;;;;2.17;1.20;;;;;;;;;;4947757;28;20274;-65
2022/07/15 00:59:53;;;;;;;3.50;1.20;;;;;;;;;;4966451;28;20419;-65
2022/07/15 01:02:20;;;;;;;4.17;1.10;;;;;;;;;;4978075;28;20228;-66
2022/07/15 01:04:47;;;;;;;3.60;1.43;;;;;;;;;;4978693;28;20630;-65
2022/07/15 01:07:14;;;;;;;4.67;1.63;;;;;;;;;;4949096;28;20232;-65
2022/07/15 01:09:42;;;;;;;2.00;0.70;;;;;;;;;;4979196;28;20228;-65
2022/07/15 01:12:08;;;;;;;3.20;0.80;;;;;;;;;;4971090;28;20227;-65
2022/07/15 01:14:36;;;;;;;4.17;0.80;;;;;;;;;;4967315;28;20321;-65
2022/07/15 01:17:07;;;;;;;4.67;0.90;;;;;;;;;;4974000;28;20232;-66
2022/07/15 01:19:34;;;;;;;3.50;1.00;;;;;;;;;;4980373;28;20236;-65
2022/07/15 01:22:01;;;;;;;3.67;0.90;;;;;;;;;;4964592;28;21029;-66
2022/07/15 01:24:28;;;;;;;1.37;0.80;;;;;;;;;;4963758;28;20683;-66
2022/07/15 01:27:09;;;;;;;1.40;0.77;;;;;;;;;;4978749;28;20235;-65
2022/07/15 01:29:36;;;;;;;3.50;0.80;;;;;;;;;;4975168;28;21186;-65
2022/07/15 01:32:03;;;;;;;1.47;0.60;;;;;;;;;;4979734;28;20239;-65
2022/07/15 01:34:30;;;;;;;2.63;0.80;;;;;;;;;;4964668;28;20283;-65
2022/07/15 01:36:58;;;;;;;2.27;0.70;;;;;;;;;;4963417;28;20344;-66
2022/07/15 01:39:25;;;;;;;4.27;0.93;;;;;;;;;;4980339;28;20316;-65
2022/07/15 01:42:03;;;;;;;3.63;1.00;;;;;;;;;;4978171;28;20227;-65
2022/07/15 01:44:32;;;;;;;2.67;0.87;;;;;;;;;;4979333;28;20231;-66
2022/07/15 01:46:59;;;;;;;3.43;0.73;;;;;;;;;;4979701;28;20256;-65
2022/07/15 01:49:31;;;;;;;2.53;0.73;;;;;;;;;;4979624;28;20311;-66
2022/07/15 01:52:10;;;;;;;2.20;0.87;;;;;;;;;;4980772;28;20230;-65
2022/07/15 01:54:39;;;;;;;3.67;1.00;;;;;;;;;;4977813;28;20249;-65
2022/07/15 01:57:07;;;;;;;2.93;0.90;;;;;;;;;;4979964;28;20232;-65
2022/07/15 01:59:54;;;;;;;3.43;0.80;;;;;;;;;;4959728;28;20248;-65
2022/07/15 02:02:44;;;;;;;1.50;0.90;;;;;;;;;;4979540;28;20223;-65
2022/07/15 02:05:14;;;;;;;1.90;0.87;;;;;;;;;;4979030;28;20224;-66
2022/07/15 02:07:42;;;;;;;2.20;0.80;;;;;;;;;;4981052;28;20242;-65
2022/07/15 02:10:13;;;;;;;4.20;1.03;;;;;;;;;;4963648;28;20358;-66
2022/07/15 02:12:44;;;;;;;3.23;0.80;;;;;;;;;;4978651;28;20234;-66
2022/07/15 02:15:14;;;;;;;1.77;0.70;;;;;;;;;;4963343;28;20228;-65
2022/07/15 02:17:47;;;;;;;2.17;0.90;;;;;;;;;;4979189;28;20220;-65
2022/07/15 02:20:14;;;;;;;1.80;0.73;;;;;;;;;;4968465;28;20239;-69
2022/07/15 02:22:41;;;;;;;3.33;1.10;;;;;;;;;;4982246;28;20302;-65
2022/07/15 02:25:08;;;;;;;3.53;0.80;;;;;;;;;;4979875;28;20700;-65
2022/07/15 02:27:35;;;;;;;2.43;0.80;;;;;;;;;;4966796;28;20234;-66
2022/07/15 02:30:02;;;;;;;1.50;0.77;;;;;;;;;;4981761;28;20224;-66
2022/07/15 02:32:32;;;;;;;3.43;1.10;;;;;;;;;;4961164;28;20231;-66
2022/07/15 02:34:59;;;;;;;2.37;1.00;;;;;;;;;;4966380;28;20368;-66
2022/07/15 02:37:28;;;;;;;4.27;0.97;;;;;;;;;;4979785;28;22598;-66
2022/07/15 02:39:55;;;;;;;4.97;1.00;;;;;;;;;;4962724;28;20577;-66
2022/07/15 02:42:23;;;;;;;4.13;1.00;;;;;;;;;;4962576;28;20220;-67
2022/07/15 02:44:50;;;;;;;3.20;1.00;;;;;;;;;;4981248;28;20250;-66
2022/07/15 02:47:17;;;;;;;2.70;1.30;;;;;;;;;;4978987;28;20235;-66
2022/07/15 02:49:44;;;;;;;2.60;1.13;;;;;;;;;;4981568;28;20242;-66
2022/07/15 02:52:13;;;;;;;3.50;1.27;;;;;;;;;;4959569;28;21215;-66
2022/07/15 02:54:45;;;;;;;4.13;1.10;;;;;;;;;;4971919;28;20233;-66
2022/07/15 02:57:11;;;;;;;2.93;0.90;;;;;;;;;;4984080;28;20309;-66
2022/07/15 02:59:38;;;;;;;4.17;1.10;;;;;;;;;;4951459;28;20330;-67
2022/07/15 03:02:05;;;;;;;4.47;1.10;;;;;;;;;;4981717;28;20227;-66
2022/07/15 03:04:32;;;;;;;3.80;1.30;;;;;;;;;;4969892;28;20235;-66
2022/07/15 03:06:59;;;;;;;4.37;1.57;;;;;;;;;;4983174;28;20634;-66
2022/07/15 03:09:26;;;;;;;4.33;1.40;;;;;;;;;;4984358;28;20219;-66
2022/07/15 03:11:54;;;;;;;5.63;1.87;;;;;;;;;;4965844;28;20334;-67
2022/07/15 03:14:23;;;;;;;3.00;1.50;;;;;;;;;;4982234;28;20224;-67
2022/07/15 03:16:49;;;;;;;3.90;1.40;;;;;;;;;;4966988;28;20293;-67
2022/07/15 03:19:16;;;;;;;3.17;1.10;;;;;;;;;;4980359;28;20242;-66
2022/07/15 03:21:45;;;;;;;4.70;1.40;;;;;;;;;;4964213;28;20224;-69
2022/07/15 03:24:13;;;;;;;2.23;0.97;;;;;;;;;;4973124;28;20226;-67
2022/07/15 03:26:41;;;;;;;3.00;1.13;;;;;;;;;;4968785;28;20282;-66
2022/07/15 03:29:28;;;;;;;6.13;1.60;;;;;;;;;;4982778;28;20228;-66
2022/07/15 03:31:55;;;;;;;5.23;1.13;;;;;;;;;;4978870;28;20231;-66
2022/07/15 03:34:40;;;;;;;5.17;1.17;;;;;;;;;;4984223;28;20219;-66
2022/07/15 03:37:07;;;;;;;5.70;1.30;;;;;;;;;;4982416;28;20231;-66
2022/07/15 03:39:35;;;;;;;4.00;1.20;;;;;;;;;;4983326;28;20251;-66
2022/07/15 03:42:02;;;;;;;2.07;0.90;;;;;;;;;;4967851;28;20246;-67
2022/07/15 03:44:29;;;;;;;3.43;0.97;;;;;;;;;;4981101;28;20301;-66
2022/07/15 03:46:56;;;;;;;3.67;1.10;;;;;;;;;;4980477;28;20318;-67
2022/07/15 03:49:23;;;;;;;3.27;1.20;;;;;;;;;;4977830;28;20718;-66
2022/07/15 03:51:51;;;;;;;3.47;1.00;;;;;;;;;;4981202;28;20297;-66
2022/07/15 03:54:18;;;;;;;3.30;1.30;;;;;;;;;;4966742;28;20329;-66
2022/07/15 03:56:47;;;;;;;3.07;1.00;;;;;;;;;;4980794;28;20691;-67
2022/07/15 03:59:17;;;;;;;4.10;0.93;;;;;;;;;;4964075;28;20232;-67
2022/07/15 04:01:44;;;;;;;3.03;1.00;;;;;;;;;;4978628;28;20230;-67
2022/07/15 04:04:11;;;;;;;2.50;0.80;;;;;;;;;;4964688;28;20315;-67
2022/07/15 04:06:38;;;;;;;2.33;1.47;;;;;;;;;;4970340;28;22374;-68
2022/07/15 04:09:05;;;;;;;4.17;1.10;;;;;;;;;;4967561;28;20322;-68
2022/07/15 04:11:31;;;;;;;2.60;1.00;;;;;;;;;;4975033;28;20307;-67
2022/07/15 04:13:59;;;;;;;5.30;1.20;;;;;;;;;;4955629;28;20891;-69
2022/07/15 04:16:26;;;;;;;3.33;0.70;;;;;;;;;;4971863;28;23049;-67
2022/07/15 04:18:55;;;;;;;3.03;0.70;;;;;;;;;;4965887;28;23707;-68
2022/07/15 04:21:22;;;;;;;3.57;0.80;;;;;;;;;;4949938;28;20232;-68
2022/07/15 04:23:49;;;;;;;3.40;0.87;;;;;;;;;;4966585;28;30166;-68
2022/07/15 04:26:16;;;;;;;4.00;0.90;;;;;;;;;;4958624;28;20691;-69
2022/07/15 04:28:43;;;;;;;2.77;1.00;;;;;;;;;;4970980;28;20301;-68
2022/07/15 04:31:11;;;;;;;3.07;0.83;;;;;;;;;;4975295;28;21396;-68
2022/07/15 04:33:48;;;;;;;3.40;0.70;;;;;;;;;;4971884;28;20712;-69
2022/07/15 04:36:15;;;;;;;3.73;0.90;;;;;;;;;;4983288;28;20591;-68
2022/07/15 04:38:42;;;;;;;3.60;0.60;;;;;;;;;;4954728;28;20240;-68
2022/07/15 04:41:10;;;;;;;3.00;0.77;;;;;;;;;;4976981;28;31808;-67
2022/07/15 04:43:38;;;;;;;5.20;1.30;;;;;;;;;;4980621;28;20224;-68
2022/07/15 04:46:05;;;;;;;2.60;0.97;;;;;;;;;;4981128;28;20235;-68
2022/07/15 04:51:21;;;;;;;3.27;0.93;;;;;;;;;;4981231;28;20219;-68
2022/07/15 04:53:48;;;;;;;3.37;0.80;;;;;;;;;;4981723;28;20603;-68
2022/07/15 04:56:17;;;;;;;6.87;1.17;;;;;;;;;;4978919;28;20314;-69
2022/07/15 04:58:45;;;;;;;4.67;1.23;;;;;;;;;;4978056;28;20600;-68
2022/07/15 05:01:12;;;;;;;2.33;0.87;;;;;;;;;;4974297;28;20234;-68
2022/07/15 05:03:41;;;;;;;5.80;1.03;;;;;;;;;;4979731;28;20243;-69
2022/07/15 05:06:08;;;;;;;4.10;1.10;;;;;;;;;;4982289;28;20235;-69
2022/07/15 05:08:38;;;;;;;3.17;0.90;;;;;;;;;;4949648;28;33528;-68
2022/07/15 05:11:05;;;;;;;3.37;1.00;;;;;;;;;;4962710;28;20872;-69
2022/07/15 05:13:32;;;;;;;3.57;1.07;;;;;;;;;;4965080;28;20903;-69
2022/07/15 05:16:00;;;;;;;3.97;1.07;;;;;;;;;;4974297;28;20690;-69
2022/07/15 05:18:29;;;;;;;5.23;1.00;;;;;;;;;;4928295;28;20307;-64
2022/07/15 05:20:58;;;;;;;5.67;1.20;;;;;;;;;;4946087;28;20226;-68
2022/07/15 05:23:28;;;;;;;2.97;0.97;;;;;;;;;;4954512;28;20220;-65
2022/07/15 05:26:01;;;;;;;4.80;1.10;;;;;;;;;;4953488;28;20231;-70
2022/07/15 05:28:28;;;;;;;4.47;1.27;;;;;;;;;;4956038;28;20238;-67
2022/07/15 05:30:55;;;;;;;5.40;1.03;;;;;;;;;;4974372;28;20290;-67
2022/07/15 05:33:22;;;;;;;4.57;1.30;;;;;;;;;;4954060;28;21155;-66
2022/07/15 05:35:50;;;;;;;5.47;1.57;;;;;;;;;;4940618;28;20224;-65
2022/07/15 05:38:26;;;;;;;5.00;1.27;;;;;;;;;;4961806;28;20232;-65
2022/07/15 05:40:53;;;;;;;4.70;0.73;;;;;;;;;;4982219;28;20236;-68
2022/07/15 05:43:21;;;;;;;2.97;0.90;;;;;;;;;;4981284;28;20224;-66
2022/07/15 05:45:48;;;;;;;5.80;1.13;;;;;;;;;;4979516;28;20235;-66
2022/07/15 05:48:15;;;;;;;4.33;0.90;;;;;;;;;;4960657;28;20223;-66
2022/07/15 05:50:49;;;;;;;4.70;1.10;;;;;;;;;;4944480;28;20231;-66
2022/07/15 05:53:16;;;;;;;4.20;0.97;;;;;;;;;;4980874;28;20243;-66
2022/07/15 05:55:43;;;;;;;4.63;1.07;;;;;;;;;;4977880;28;20231;-65
2022/07/15 05:58:15;;;;;;;4.80;1.37;;;;;;;;;;4962797;28;20323;-66
2022/07/15 06:00:42;;;;;;;4.37;0.93;;;;;;;;;;4971600;28;20239;-66
2022/07/15 06:03:09;;;;;;;3.60;1.00;;;;;;;;;;4979067;28;20228;-66
2022/07/15 06:05:43;;;;;;;5.07;1.10;;;;;;;;;;4953049;28;20226;-66
2022/07/15 06:08:28;;;;;;;6.87;1.53;;;;;;;;;;4971290;28;20227;-65
2022/07/15 06:10:56;;;;;;;2.00;0.70;;;;;;;;;;4974145;28;20228;-65
2022/07/15 06:13:24;;;;;;;2.67;0.97;;;;;;;;;;4960205;28;20240;-66
2022/07/15 06:15:50;;;;;;;4.40;1.13;;;;;;;;;;4981606;28;20239;-65
2022/07/15 06:18:21;;;;;;;5.73;1.63;;;;;;;;;;4979581;28;20232;-65
2022/07/15 06:20:50;;;;;;;4.60;1.37;;;;;;;;;;4973643;28;20235;-67
2022/07/15 06:23:17;;;;;;;5.37;1.33;;;;;;;;;;4947842;28;20903;-67
2022/07/15 06:25:44;;;;;;;3.57;1.27;;;;;;;;;;4970001;28;22508;-65
2022/07/15 06:28:13;;;;;;;3.77;0.97;;;;;;;;;;4973116;28;20309;-64
2022/07/15 06:34:33;;;;;;;2.80;0.90;;;;;;;;;;4973193;28;20317;-66
2022/07/15 06:37:00;;;;;;;3.10;0.80;;;;;;;;;;4970412;28;20259;-66
2022/07/15 06:39:27;;;;;;;5.40;0.90;;;;;;;;;;4977634;28;20235;-66
2022/07/15 06:41:54;;;;;;;2.73;0.93;;;;;;;;;;4968037;28;21075;-68
2022/07/15 06:44:22;;;;;;;3.13;0.90;;;;;;;;;;4956165;28;20298;-67
2022/07/15 06:46:55;;;;;;;4.97;1.03;;;;;;;;;;4930855;28;21072;-68
2022/07/15 06:49:28;;;;;;;5.97;1.20;;;;;;;;;;4982347;28;20234;-68
2022/07/15 06:51:55;;;;;;;4.30;0.90;;;;;;;;;;4982245;28;20228;-70
2022/07/15 06:54:22;;;;;;;3.70;1.00;;;;;;;;;;4981842;28;22868;-66
2022/07/15 06:56:49;;;;;;;4.87;1.00;;;;;;;;;;4961496;28;20290;-66
2022/07/15 06:59:16;;;;;;;4.93;1.00;;;;;;;;;;4940961;28;20790;-67
2022/07/15 07:01:45;;;;;;;3.60;0.77;;;;;;;;;;4957167;28;20248;-68
2022/07/15 07:04:13;;;;;;;4.73;1.00;;;;;;;;;;4978877;28;20706;-68
2022/07/15 07:06:40;;;;;;;7.53;1.33;;;;;;;;;;4961715;28;20313;-67
2022/07/15 07:09:07;;;;;;;3.83;0.73;;;;;;;;;;4975039;28;20366;-69
2022/07/15 07:11:34;;;;;;;2.63;0.83;;;;;;;;;;4971272;28;20232;-68
2022/07/15 07:14:01;;;;;;;8.10;1.13;;;;;;;;;;4950581;28;215587;-67
2022/07/15 07:16:28;;;;;;;4.17;0.90;;;;;;;;;;4957148;28;20230;-67
2022/07/15 07:18:55;;;;;;;2.50;0.77;;;;;;;;;;4958095;28;20605;-66
2022/07/15 07:21:40;;;;;;;3.47;0.87;;;;;;;;;;4962728;28;20313;-67
2022/07/15 07:24:07;;;;;;;3.83;1.00;;;;;;;;;;4951402;28;220969;-67
2022/07/15 07:26:34;;;;;;;1.87;0.83;;;;;;;;;;4956526;28;20234;-67
2022/07/15 07:29:01;;;;;;;3.97;0.83;;;;;;;;;;4981986;28;20929;-67
2022/07/15 07:31:28;;;;;;;4.43;1.43;;;;;;;;;;4975100;28;20235;-68
2022/07/15 07:34:13;;;;;;;3.07;0.90;;;;;;;;;;4957603;28;20224;-68
2022/07/15 07:36:40;;;;;;;4.00;0.90;;;;;;;;;;4975556;28;25444;-68
2022/07/15 07:39:07;;;;;;;2.50;1.00;;;;;;;;;;4984447;28;20231;-67
2022/07/15 07:41:34;;;;;;;4.70;1.00;;;;;;;;;;4976482;28;20239;-65
2022/07/15 07:44:01;;;;;;;3.93;0.90;;;;;;;;;;4960175;28;20259;-66
2022/07/15 07:46:28;;;;;;;2.90;0.60;;;;;;;;;;4979635;28;20312;-66
2022/07/15 07:49:13;;;;;;;2.23;0.50;;;;;;;;;;4979385;28;21001;-66
2022/07/15 07:51:59;;;;;;;4.40;1.00;;;;;;;;;;4952605;28;216767;-68
2022/07/15 07:54:26;;;;;;;2.53;0.70;;;;;;;;;;4977314;28;20224;-67
2022/07/15 07:56:53;;;;;;;3.43;0.70;;;;;;;;;;4975967;28;20224;-66
2022/07/15 07:59:21;;;;;;;7.20;1.00;;;;;;;;;;4977225;28;20255;-68
2022/07/15 08:01:49;;;;;;;3.53;1.00;;;;;;;;;;4954868;28;20270;-66
2022/07/15 08:04:16;;;;;;;5.90;0.80;;;;;;;;;;4976093;28;20258;-66
2022/07/15 08:06:43;;;;;;;4.37;0.73;;;;;;;;;;4971817;28;20223;-66
2022/07/15 08:09:10;;;;;;;4.40;0.80;;;;;;;;;;4976226;28;20307;-67
2022/07/15 08:11:37;;;;;;;3.90;1.00;;;;;;;;;;4975324;28;20227;-66
2022/07/15 08:14:04;;;;;;;4.60;1.00;;;;;;;;;;4977005;28;20272;-66
2022/07/15 08:16:32;;;;;;;4.73;1.17;;;;;;;;;;4974733;28;20740;-66
2022/07/15 08:18:59;;;;;;;8.50;1.30;;;;;;;;;;4978470;28;20235;-64
2022/07/15 08:21:27;;;;;;;3.27;1.03;;;;;;;;;;4977275;28;20243;-67
2022/07/15 08:23:54;;;;;;;4.70;1.20;;;;;;;;;;4982693;28;20219;-67
2022/07/15 08:26:23;;;;;;;5.20;1.10;;;;;;;;;;4962997;28;20288;-67
2022/07/15 08:28:51;;;;;;;4.07;1.10;;;;;;;;;;4980337;28;20227;-68
2022/07/15 08:31:33;;;;;;;4.63;1.33;;;;;;;;;;4981078;28;20351;-68
2022/07/15 08:34:18;;;;;;;4.00;1.33;;;;;;;;;;4982601;28;20236;-69
2022/07/15 08:36:44;;;;;;;4.57;1.23;;;;;;;;;;4975479;28;20883;-71
2022/07/15 08:39:12;;;;;;;3.43;1.13;;;;;;;;;;4974680;28;26559;-68
2022/07/15 08:41:39;;;;;;;5.83;1.13;;;;;;;;;;4962401;28;20220;-70
2022/07/15 08:44:06;;;;;;;2.57;1.00;;;;;;;;;;4973003;28;20232;-71
2022/07/15 08:46:34;;;;;;;5.73;1.50;;;;;;;;;;4928000;28;254303;-72
2022/07/15 08:49:02;;;;;;;5.67;1.13;;;;;;;;;;4974770;28;20642;-68
2022/07/15 08:51:29;;;;;;;3.67;1.10;;;;;;;;;;4953522;28;20224;-71
2022/07/15 08:53:56;;;;;;;6.13;1.20;;;;;;;;;;4942249;28;20227;-75
2022/07/15 08:56:23;;;;;;;5.50;1.37;;;;;;;;;;4938114;28;637495;-72
2022/07/15 08:58:50;;;;;;;4.57;1.17;;;;;;;;;;4972586;28;20232;-70
2022/07/15 09:01:31;;;;;;;8.00;1.20;;;;;;;;;;4957456;28;20235;-68
2022/07/15 09:03:58;;;;;;;5.30;1.40;;;;;;;;;;4950650;28;227081;-68
2022/07/15 09:06:32;;;;;;;6.00;1.20;;;;;;;;;;4954841;28;228548;-69
2022/07/15 09:09:12;;;;;;;5.27;1.20;;;;;;;;;;4929571;28;20309;-72
2022/07/15 09:11:38;;;;;;;7.50;1.73;;;;;;;;;;4955870;28;20227;-66
2022/07/15 09:14:06;;;;;;;4.37;1.00;;;;;;;;;;4975336;28;32706;-71
2022/07/15 09:16:33;;;;;;;4.13;1.27;;;;;;;;;;4953440;28;26357;-71
2022/07/15 09:19:01;;;;;;;6.97;1.40;;;;;;;;;;4947333;28;20259;-67
2022/07/15 09:21:56;;;;;;;4.07;1.23;;;;;;;;;;4962812;28;44413;-67
2022/07/15 09:24:23;;;;;;;6.97;1.67;;;;;;;;;;4954016;28;22802;-67
2022/07/15 09:26:50;;;;;;;6.40;1.43;;;;;;;;;;4975512;28;20773;-67
2022/07/15 09:35:00;;;;;;;4.77;1.00;;;;;;;;;;4972685;28;20254;-66
2022/07/15 09:37:27;;;;;;;3.90;1.00;;;;;;;;;;4973215;28;20588;-64
2022/07/15 09:39:55;;;;;;;7.23;1.40;;;;;;;;;;4975326;28;20239;-67
2022/07/15 09:42:22;;;;;;;6.47;1.20;;;;;;;;;;4952461;28;20263;-66
2022/07/15 09:44:50;;;;;;;6.40;1.10;;;;;;;;;;4977532;28;20234;-66
2022/07/15 09:47:18;;;;;;;4.43;1.10;;;;;;;;;;4950269;28;20219;-65
2022/07/15 09:49:45;;;;;;;6.90;1.00;;;;;;;;;;4975428;28;24847;-65
2022/07/15 09:52:14;;;;;;;3.60;0.97;;;;;;;;;;4973901;28;20319;-64
2022/07/15 09:54:42;;;;;;;5.17;0.90;;;;;;;;;;4973078;28;20320;-65
2022/07/15 09:57:11;;;;;;;3.30;0.97;;;;;;;;;;4977170;28;20361;-64
2022/07/15 09:59:38;;;;;;;4.50;1.17;;;;;;;;;;4970981;28;20232;-64
2022/07/15 10:02:07;;;;;;;3.77;1.10;;;;;;;;;;4971361;28;20722;-65
2022/07/15 10:04:35;;;;;;;5.27;1.17;;;;;;;;;;4975467;28;20228;-66
2022/07/15 10:07:04;;;;;;;5.83;1.30;;;;;;;;;;4973852;28;21093;-65
2022/07/15 10:09:52;;;;;;;5.00;1.40;;;;;;;;;;4954944;28;20695;-68
2022/07/15 10:12:19;;;;;;;5.17;1.07;;;;;;;;;;4981019;28;20242;-66
2022/07/15 10:14:52;;;;;;;4.70;1.30;;;;;;;;;;4979899;28;20267;-65
2022/07/15 10:17:35;;;;;;;4.10;0.90;;;;;;;;;;4983767;28;20243;-67
2022/07/15 10:20:03;;;;;;;4.77;1.43;;;;;;;;;;4972902;28;20254;-66
2022/07/15 10:22:40;;;;;;;4.70;1.00;;;;;;;;;;4972827;28;20314;-67
2022/07/15 10:25:25;;;;;;;6.17;1.27;;;;;;;;;;4969475;28;20250;-68
2022/07/15 10:27:55;;;;;;;2.67;1.20;;;;;;;;;;4969571;28;20638;-65
2022/07/15 10:30:24;;;;;;;4.80;1.00;;;;;;;;;;4972703;28;20239;-65
2022/07/15 10:33:03;;;;;;;5.67;1.13;;;;;;;;;;4979877;28;20322;-67
2022/07/15 10:35:38;;;;;;;5.30;1.00;;;;;;;;;;4971867;28;20235;-66
2022/07/15 10:38:23;;;;;;;6.33;1.30;;;;;;;;;;4973107;28;20828;-67
2022/07/15 10:41:06;;;;;;;4.87;1.10;;;;;;;;;;4954322;28;20233;-68
2022/07/15 10:43:45;;;;;;;3.00;0.90;;;;;;;;;;4935239;28;20229;-66
2022/07/15 10:46:18;;;;;;;6.40;1.07;;;;;;;;;;4950387;28;20881;-65
2022/07/15 10:48:45;;;;;;;3.77;1.13;;;;;;;;;;4950967;28;20255;-66
2022/07/15 10:51:13;;;;;;;3.47;1.20;;;;;;;;;;4952093;28;20305;-64
2022/07/15 10:53:44;;;;;;;6.23;1.20;;;;;;;;;;4936720;28;20763;-65
2022/07/15 10:56:30;;;;;;;2.60;1.10;;;;;;;;;;4949435;28;20307;-66
2022/07/15 10:59:29;;;;;;;4.67;0.83;;;;;;;;;;4950474;28;20231;-66
2022/07/15 11:01:56;;;;;;;3.67;1.10;;;;;;;;;;4913775;28;20225;-67
2022/07/15 11:04:27;;;;;;;6.47;1.10;;;;;;;;;;4938864;28;20252;-66
2022/07/15 11:07:04;;;;;;;2.73;1.03;;;;;;;;;;4950457;28;34719;-66
2022/07/15 11:09:44;;;;;;;4.97;1.10;;;;;;;;;;4948085;28;20229;-65
2022/07/15 11:12:12;;;;;;;4.93;1.10;;;;;;;;;;4948412;28;20307;-66
2022/07/15 11:14:41;;;;;;;6.17;1.57;;;;;;;;;;4954198;28;20228;-69
2022/07/15 11:17:09;;;;;;;2.93;1.03;;;;;;;;;;4939073;28;20240;-66
2022/07/15 11:19:36;;;;;;;5.23;0.90;;;;;;;;;;4952821;28;20232;-65
2022/07/15 11:22:03;;;;;;;5.10;1.10;;;;;;;;;;4957789;28;20241;-64
2022/07/15 11:24:31;;;;;;;2.97;1.00;;;;;;;;;;4956908;28;20774;-65
2022/07/15 11:27:01;;;;;;;4.13;0.80;;;;;;;;;;4957454;28;20237;-69
2022/07/15 11:29:44;;;;;;;6.20;1.10;;;;;;;;;;4957450;28;20311;-67
2022/07/15 11:32:12;;;;;;;5.10;1.23;;;;;;;;;;4955620;28;21323;-66
2022/07/15 11:34:41;;;;;;;3.77;0.93;;;;;;;;;;4952153;28;20225;-66
2022/07/15 11:37:10;;;;;;;4.33;1.17;;;;;;;;;;4924430;28;20274;-70
2022/07/15 11:39:37;;;;;;;5.07;1.30;;;;;;;;;;4944907;28;20373;-67
2022/07/15 11:44:50;;;;;;;2.97;0.90;;;;;;;;;;4967098;28;20294;-68
2022/07/15 11:47:22;;;;;;;3.37;1.00;;;;;;;;;;4977708;28;20586;-67
2022/07/15 11:49:51;;;;;;;4.67;1.10;;;;;;;;;;4945096;28;20240;-67
2022/07/15 11:52:22;;;;;;;3.50;1.00;;;;;;;;;;4978424;28;20710;-68
2022/07/15 11:55:08;;;;;;;3.30;1.00;;;;;;;;;;4975633;28;20222;-68
2022/07/15 11:57:35;;;;;;;5.87;1.10;;;;;;;;;;4975576;28;20692;-67
2022/07/15 12:00:03;;;;;;;5.20;1.30;;;;;;;;;;4975959;28;20714;-67
2022/07/15 12:02:37;;;;;;;3.40;1.20;;;;;;;;;;4973948;28;20226;-66
2022/07/15 12:05:07;;;;;;;4.40;1.30;;;;;;;;;;4972578;28;20240;-65
2022/07/15 12:07:40;;;;;;;3.73;0.87;;;;;;;;;;4977635;28;21059;-66
2022/07/15 12:10:35;;;;;;;6.47;1.40;;;;;;;;;;4972101;28;20266;-60
2022/07/15 12:13:04;;;;;;;6.03;1.23;;;;;;;;;;4984049;28;20965;-59
2022/07/15 12:15:32;;;;;;;7.67;1.57;;;;;;;;;;4964761;28;20243;-60
2022/07/15 12:17:59;;;;;;;3.30;1.37;;;;;;;;;;4968571;28;20297;-60
2022/07/15 12:20:27;;;;;;;5.37;1.67;;;;;;;;;;4978945;28;20242;-65
2022/07/15 12:23:03;;;;;;;3.50;0.63;;;;;;;;;;4974730;28;20223;-64
2022/07/15 12:25:48;;;;;;;4.07;0.87;;;;;;;;;;4958566;28;20890;-66
2022/07/15 12:28:29;;;;;;;6.13;1.03;;;;;;;;;;4967279;28;20974;-66
2022/07/15 12:30:55;;;;;;;5.83;1.30;;;;;;;;;;4975043;28;20781;-64
2022/07/15 12:33:23;;;;;;;3.00;0.87;;;;;;;;;;4960163;28;20247;-66
2022/07/15 12:35:50;;;;;;;7.67;1.10;;;;;;;;;;4977072;28;20232;-66
2022/07/15 12:38:25;;;;;;;3.27;0.80;;;;;;;;;;4956443;28;20314;-68
2022/07/15 12:40:52;;;;;;;4.73;0.90;;;;;;;;;;4969057;28;35697;-65
2022/07/15 12:43:50;;;;;;;4.73;1.10;;;;;;;;;;4979601;28;20285;-65
2022/07/15 12:46:17;;;;;;;3.87;1.07;;;;;;;;;;4974881;28;20228;-65
2022/07/15 12:48:48;;;;;;;4.70;1.27;;;;;;;;;;4976311;28;20231;-66
2022/07/15 12:51:15;;;;;;;6.47;1.13;;;;;;;;;;4973447;28;20277;-65
2022/07/15 12:53:42;;;;;;;4.87;0.90;;;;;;;;;;4977954;28;20309;-65
2022/07/15 12:56:10;;;;;;;5.63;1.47;;;;;;;;;;4974680;28;20227;-64
2022/07/15 12:58:37;;;;;;;3.63;1.10;;;;;;;;;;4960036;28;20224;-65
2022/07/15 13:01:05;;;;;;;4.23;0.93;;;;;;;;;;4975266;28;21027;-64
2022/07/15 13:03:35;;;;;;;6.43;1.10;;;;;;;;;;4960961;28;20332;-64
2022/07/15 13:06:02;;;;;;;3.80;1.07;;;;;;;;;;4975448;28;20232;-65
2022/07/15 13:08:30;;;;;;;4.47;1.50;;;;;;;;;;4958013;28;20239;-64
2022/07/15 13:10:58;;;;;;;4.10;0.90;;;;;;;;;;4967426;28;20322;-66
2022/07/15 13:13:30;;;;;;;5.47;1.40;;;;;;;;;;4972670;28;21305;-67
2022/07/15 13:16:01;;;;;;;4.30;0.90;;;;;;;;;;4972007;28;20243;-67
2022/07/15 13:18:29;;;;;;;6.00;1.10;;;;;;;;;;4982727;28;20235;-66
2022/07/15 13:20:56;;;;;;;4.47;0.90;;;;;;;;;;4971532;28;20299;-67
2022/07/15 13:23:24;;;;;;;4.53;0.90;;;;;;;;;;4956867;28;20239;-66
2022/07/15 13:25:52;;;;;;;4.60;1.17;;;;;;;;;;4944663;28;20243;-65
2022/07/15 13:28:37;;;;;;;4.10;1.17;;;;;;;;;;4970299;28;20231;-65
2022/07/15 13:31:03;;;;;;;4.23;1.30;;;;;;;;;;4974828;28;20318;-64
2022/07/15 13:33:32;;;;;;;5.07;1.03;;;;;;;;;;4973413;28;20236;-66
2022/07/15 13:35:59;;;;;;;4.73;1.10;;;;;;;;;;4973819;28;20242;-65
2022/07/15 13:38:26;;;;;;;6.67;1.37;;;;;;;;;;4963144;28;20228;-66
2022/07/15 13:40:53;;;;;;;3.40;0.80;;;;;;;;;;4969219;28;20325;-66
2022/07/15 13:43:20;;;;;;;3.60;1.00;;;;;;;;;;4972768;28;20228;-66
2022/07/15 13:45:47;;;;;;;3.73;1.00;;;;;;;;;;4954756;28;218955;-67
2022/07/15 13:48:14;;;;;;;3.27;0.80;;;;;;;;;;4972564;28;20945;-64
2022/07/15 13:53:27;;;;;;;3.73;1.10;;;;;;;;;;4970102;28;23782;-66
2022/07/15 13:56:13;;;;;;;4.37;1.17;;;;;;;;;;4974433;28;20283;-65
2022/07/15 13:58:40;;;;;;;3.53;1.00;;;;;;;;;;4958971;28;20745;-65
2022/07/15 14:01:07;;;;;;;3.87;1.00;;;;;;;;;;4955872;28;20239;-67
2022/07/15 14:03:34;;;;;;;4.50;1.13;;;;;;;;;;4973594;28;20236;-67
2022/07/15 14:06:01;;;;;;;4.50;0.87;;;;;;;;;;4971371;28;20227;-66
2022/07/15 14:08:45;;;;;;;6.07;1.13;;;;;;;;;;4976071;28;20623;-66
2022/07/15 14:11:15;;;;;;;5.00;1.00;;;;;;;;;;4971380;28;20263;-65
2022/07/15 14:13:59;;;;;;;2.63;0.90;;;;;;;;;;4959043;28;20243;-66
2022/07/15 14:16:26;;;;;;;3.37;0.87;;;;;;;;;;4973564;28;20278;-68
2022/07/15 14:18:53;;;;;;;3.70;0.83;;;;;;;;;;4972496;28;20226;-65
2022/07/15 14:21:21;;;;;;;3.60;0.90;;;;;;;;;;4971992;28;20232;-68
2022/07/15 14:23:48;;;;;;;4.97;0.70;;;;;;;;;;4954834;28;20294;-68
2022/07/15 14:26:15;;;;;;;3.73;1.10;;;;;;;;;;4951830;28;20228;-67
2022/07/15 14:28:42;;;;;;;5.80;1.70;;;;;;;;;;4970484;28;20267;-66
2022/07/15 14:31:12;;;;;;;4.93;0.80;;;;;;;;;;4956821;28;21021;-68
2022/07/15 14:33:43;;;;;;;3.23;0.80;;;;;;;;;;4939800;28;20224;-67
2022/07/15 14:36:11;;;;;;;3.97;1.20;;;;;;;;;;4964814;28;217266;-68
2022/07/15 14:38:38;;;;;;;3.40;1.13;;;;;;;;;;4974756;28;20216;-66
2022/07/15 14:41:05;;;;;;;5.90;1.10;;;;;;;;;;4958672;28;20372;-66
2022/07/15 14:43:32;;;;;;;2.90;0.87;;;;;;;;;;4952417;28;20715;-67
2022/07/15 14:45:59;;;;;;;3.83;1.10;;;;;;;;;;4945034;28;20315;-67
2022/07/15 14:48:30;;;;;;;6.43;1.00;;;;;;;;;;4971502;28;20227;-65
2022/07/15 14:50:56;;;;;;;5.37;1.07;;;;;;;;;;4974700;28;20235;-67
2022/07/15 14:53:24;;;;;;;2.43;0.90;;;;;;;;;;4976508;28;20220;-65
2022/07/15 14:55:51;;;;;;;4.63;1.23;;;;;;;;;;4939056;28;20224;-65
2022/07/15 14:58:20;;;;;;;3.90;1.10;;;;;;;;;;4972927;28;20240;-67
2022/07/15 15:00:48;;;;;;;3.47;1.00;;;;;;;;;;4977823;28;20230;-67
2022/07/15 15:03:33;;;;;;;3.87;1.00;;;;;;;;;;4975227;28;20232;-66
2022/07/15 15:06:00;;;;;;;4.17;1.10;;;;;;;;;;4970462;28;20224;-66
2022/07/15 15:08:30;;;;;;;5.40;0.97;;;;;;;;;;4975513;28;20341;-67
2022/07/15 15:10:57;;;;;;;5.87;0.93;;;;;;;;;;4969939;28;20942;-67
2022/07/15 15:13:24;;;;;;;3.73;1.30;;;;;;;;;;4961124;28;20235;-67
2022/07/15 15:16:10;;;;;;;7.07;1.20;;;;;;;;;;4965559;28;20226;-66